sensor_id;sensor_type;location;lat;lon;timestamp;pressure;altitude;pressure_sealevel;temperature;humidity
11971;BME280;6045;42.682;23.294;2023-03-15T00:00:22;93639.72;;;7.96;51.11
11971;BME280;6045;42.682;23.294;2023-03-15T00:02:49;93636.50;;;7.82;51.51
11971;BME280;6045;42.682;23.294;2023-03-15T00:05:16;93634.19;;;7.86;51.33
11971;BME280;6045;42.682;23.294;2023-03-15T00:07:43;93632.59;;;7.73;51.68
11971;BME280;6045;42.682;23.294;2023-03-15T00:10:10;93623.50;;;7.69;51.85
11971;BME280;6045;42.682;23.294;2023-03-15T00:12:38;93630.22;;;7.60;52.27
11971;BME280;6045;42.682;23.294;2023-03-15T00:15:07;93638.25;;;7.48;52.97
11971;BME280;6045;42.682;23.294;2023-03-15T00:17:35;93646.84;;;7.67;52.34
11971;BME280;6045;42.682;23.294;2023-03-15T00:20:02;93636.44;;;7.77;51.99
11971;BME280;6045;42.682;23.294;2023-03-15T00:22:30;93638.22;;;7.88;51.60
11971;BME280;6045;42.682;23.294;2023-03-15T00:24:57;93629.38;;;7.99;51.52
11971;BME280;6045;42.682;23.294;2023-03-15T00:27:24;93627.38;;;8.06;51.89
11971;BME280;6045;42.682;23.294;2023-03-15T00:29:52;93631.84;;;8.17;51.76
11971;BME280;6045;42.682;23.294;2023-03-15T00:32:19;93629.22;;;8.06;51.69
11971;BME280;6045;42.682;23.294;2023-03-15T00:34:46;93618.28;;;8.02;51.67
11971;BME280;6045;42.682;23.294;2023-03-15T00:37:13;93624.81;;;8.11;51.24
11971;BME280;6045;42.682;23.294;2023-03-15T00:39:41;93616.47;;;8.19;51.47
11971;BME280;6045;42.682;23.294;2023-03-15T00:42:10;93619.97;;;8.37;50.93
11971;BME280;6045;42.682;23.294;2023-03-15T00:44:40;93622.31;;;8.33;50.70
11971;BME280;6045;42.682;23.294;2023-03-15T00:47:08;93618.75;;;8.27;51.12
11971;BME280;6045;42.682;23.294;2023-03-15T00:49:36;93618.47;;;8.12;51.13
11971;BME280;6045;42.682;23.294;2023-03-15T00:52:03;93614.53;;;8.03;52.19
11971;BME280;6045;42.682;23.294;2023-03-15T00:54:30;93601.34;;;8.08;52.39
11971;BME280;6045;42.682;23.294;2023-03-15T00:56:58;93599.50;;;8.25;52.05
11971;BME280;6045;42.682;23.294;2023-03-15T00:59:27;93602.69;;;8.39;51.58
11971;BME280;6045;42.682;23.294;2023-03-15T01:01:59;93591.31;;;8.44;51.66
11971;BME280;6045;42.682;23.294;2023-03-15T01:04:27;93589.56;;;8.49;51.60
11971;BME280;6045;42.682;23.294;2023-03-15T01:06:56;93586.25;;;8.59;51.12
11971;BME280;6045;42.682;23.294;2023-03-15T01:09:23;93593.25;;;8.65;50.61
11971;BME280;6045;42.682;23.294;2023-03-15T01:11:50;93596.00;;;8.70;50.72
11971;BME280;6045;42.682;23.294;2023-03-15T01:14:17;93585.44;;;8.75;50.44
11971;BME280;6045;42.682;23.294;2023-03-15T01:16:44;93583.66;;;8.80;50.40
11971;BME280;6045;42.682;23.294;2023-03-15T01:19:11;93577.19;;;8.76;50.48
11971;BME280;6045;42.682;23.294;2023-03-15T01:21:40;93579.78;;;8.71;50.54
11971;BME280;6045;42.682;23.294;2023-03-15T01:24:11;93574.69;;;8.70;49.83
11971;BME280;6045;42.682;23.294;2023-03-15T01:26:38;93568.41;;;8.59;50.91
11971;BME280;6045;42.682;23.294;2023-03-15T01:29:05;93561.47;;;8.58;51.11
11971;BME280;6045;42.682;23.294;2023-03-15T01:31:32;93561.72;;;8.57;51.03
11971;BME280;6045;42.682;23.294;2023-03-15T01:33:59;93565.59;;;8.66;50.77
11971;BME280;6045;42.682;23.294;2023-03-15T01:36:26;93563.00;;;8.71;50.83
11971;BME280;6045;42.682;23.294;2023-03-15T01:38:54;93565.97;;;8.74;50.71
11971;BME280;6045;42.682;23.294;2023-03-15T01:41:21;93559.91;;;8.79;50.31
11971;BME280;6045;42.682;23.294;2023-03-15T01:43:50;93549.25;;;8.79;50.08
11971;BME280;6045;42.682;23.294;2023-03-15T01:46:24;93563.31;;;8.74;50.56
11971;BME280;6045;42.682;23.294;2023-03-15T01:48:56;93549.97;;;8.74;50.63
11971;BME280;6045;42.682;23.294;2023-03-15T01:51:27;93548.38;;;8.73;50.54
11971;BME280;6045;42.682;23.294;2023-03-15T01:54:00;93537.88;;;8.67;50.56
11971;BME280;6045;42.682;23.294;2023-03-15T01:56:28;93536.47;;;8.59;50.92
11971;BME280;6045;42.682;23.294;2023-03-15T01:58:58;93541.72;;;8.54;51.73
11971;BME280;6045;42.682;23.294;2023-03-15T02:01:27;93535.72;;;8.64;51.71
11971;BME280;6045;42.682;23.294;2023-03-15T02:03:58;93528.78;;;8.63;51.24
11971;BME280;6045;42.682;23.294;2023-03-15T02:06:27;93532.72;;;8.60;51.24
11971;BME280;6045;42.682;23.294;2023-03-15T02:09:03;93520.22;;;8.61;51.33
11971;BME280;6045;42.682;23.294;2023-03-15T02:11:33;93514.41;;;8.64;50.68
11971;BME280;6045;42.682;23.294;2023-03-15T02:14:02;93521.84;;;8.62;51.37
11971;BME280;6045;42.682;23.294;2023-03-15T02:16:31;93514.09;;;8.60;51.01
11971;BME280;6045;42.682;23.294;2023-03-15T02:18:58;93513.88;;;8.62;51.06
11971;BME280;6045;42.682;23.294;2023-03-15T02:21:34;93505.81;;;8.57;51.16
11971;BME280;6045;42.682;23.294;2023-03-15T02:24:12;93506.56;;;8.36;51.32
11971;BME280;6045;42.682;23.294;2023-03-15T02:26:46;93501.53;;;8.39;51.79
11971;BME280;6045;42.682;23.294;2023-03-15T02:29:16;93499.28;;;8.48;51.55
11971;BME280;6045;42.682;23.294;2023-03-15T02:31:43;93500.88;;;8.49;51.84
11971;BME280;6045;42.682;23.294;2023-03-15T02:34:10;93501.22;;;8.36;52.43
11971;BME280;6045;42.682;23.294;2023-03-15T02:36:37;93501.31;;;8.41;52.27
11971;BME280;6045;42.682;23.294;2023-03-15T02:39:13;93506.69;;;8.46;52.03
11971;BME280;6045;42.682;23.294;2023-03-15T02:41:41;93501.06;;;8.42;52.29
11971;BME280;6045;42.682;23.294;2023-03-15T02:44:11;93500.31;;;8.47;52.06
11971;BME280;6045;42.682;23.294;2023-03-15T02:46:41;93496.63;;;8.48;51.79
11971;BME280;6045;42.682;23.294;2023-03-15T02:49:10;93500.25;;;8.42;51.90
11971;BME280;6045;42.682;23.294;2023-03-15T02:51:37;93494.28;;;8.35;52.35
11971;BME280;6045;42.682;23.294;2023-03-15T02:54:04;93495.41;;;8.39;52.60
11971;BME280;6045;42.682;23.294;2023-03-15T02:56:31;93494.28;;;8.35;52.31
11971;BME280;6045;42.682;23.294;2023-03-15T02:58:58;93488.31;;;8.27;52.17
11971;BME280;6045;42.682;23.294;2023-03-15T03:01:25;93487.84;;;8.31;51.97
11971;BME280;6045;42.682;23.294;2023-03-15T03:03:53;93484.63;;;8.29;52.06
11971;BME280;6045;42.682;23.294;2023-03-15T03:06:20;93480.06;;;8.29;52.31
11971;BME280;6045;42.682;23.294;2023-03-15T03:08:47;93467.16;;;8.21;52.34
11971;BME280;6045;42.682;23.294;2023-03-15T03:11:15;93467.72;;;8.23;52.11
11971;BME280;6045;42.682;23.294;2023-03-15T03:13:42;93476.44;;;8.18;52.50
11971;BME280;6045;42.682;23.294;2023-03-15T03:16:09;93473.22;;;8.16;52.89
11971;BME280;6045;42.682;23.294;2023-03-15T03:18:37;93465.53;;;8.20;53.32
11971;BME280;6045;42.682;23.294;2023-03-15T03:21:06;93467.47;;;8.24;52.92
11971;BME280;6045;42.682;23.294;2023-03-15T03:23:34;93465.88;;;8.23;52.95
11971;BME280;6045;42.682;23.294;2023-03-15T03:26:03;93460.00;;;8.21;52.86
11971;BME280;6045;42.682;23.294;2023-03-15T03:28:42;93457.34;;;8.21;53.41
11971;BME280;6045;42.682;23.294;2023-03-15T03:31:15;93454.66;;;8.21;53.39
11971;BME280;6045;42.682;23.294;2023-03-15T03:33:42;93457.34;;;8.21;53.04
11971;BME280;6045;42.682;23.294;2023-03-15T03:36:10;93464.25;;;8.22;53.85
11971;BME280;6045;42.682;23.294;2023-03-15T03:38:39;93451.50;;;8.24;53.53
11971;BME280;6045;42.682;23.294;2023-03-15T03:41:05;93443.06;;;8.27;53.64
11971;BME280;6045;42.682;23.294;2023-03-15T03:43:32;93438.81;;;8.27;54.42
11971;BME280;6045;42.682;23.294;2023-03-15T03:45:59;93436.16;;;8.27;54.12
11971;BME280;6045;42.682;23.294;2023-03-15T03:48:25;93440.16;;;8.29;53.74
11971;BME280;6045;42.682;23.294;2023-03-15T03:50:52;93445.25;;;8.31;53.99
11971;BME280;6045;42.682;23.294;2023-03-15T03:53:20;93436.44;;;8.30;53.71
11971;BME280;6045;42.682;23.294;2023-03-15T03:55:47;93429.34;;;8.36;53.84
11971;BME280;6045;42.682;23.294;2023-03-15T03:58:14;93430.41;;;8.35;54.34
11971;BME280;6045;42.682;23.294;2023-03-15T04:00:41;93427.97;;;8.33;54.54
11971;BME280;6045;42.682;23.294;2023-03-15T04:03:08;93420.75;;;8.29;54.74
11971;BME280;6045;42.682;23.294;2023-03-15T04:05:35;93427.09;;;8.87;78.60
11971;BME280;6045;42.682;23.294;2023-03-15T04:08:02;93416.75;;;9.71;81.40
11971;BME280;6045;42.682;23.294;2023-03-15T04:10:31;93411.38;;;10.35;71.30
11971;BME280;6045;42.682;23.294;2023-03-15T04:13:00;93411.38;;;10.86;63.19
11971;BME280;6045;42.682;23.294;2023-03-15T04:15:27;93411.81;;;11.25;59.33
11971;BME280;6045;42.682;23.294;2023-03-15T04:17:55;93409.47;;;11.49;56.20
11971;BME280;6045;42.682;23.294;2023-03-15T04:20:23;93413.81;;;11.70;54.01
11971;BME280;6045;42.682;23.294;2023-03-15T04:22:50;93413.53;;;11.92;52.80
11971;BME280;6045;42.682;23.294;2023-03-15T04:25:18;93420.50;;;12.03;51.24
11971;BME280;6045;42.682;23.294;2023-03-15T04:27:46;93409.78;;;12.33;50.92
11971;BME280;6045;42.682;23.294;2023-03-15T04:30:22;93408.66;;;12.64;49.55
11971;BME280;6045;42.682;23.294;2023-03-15T04:32:51;93402.72;;;12.72;48.85
11971;BME280;6045;42.682;23.294;2023-03-15T04:35:23;93405.97;;;12.64;43.47
11971;BME280;6045;42.682;23.294;2023-03-15T04:37:50;93403.09;;;12.20;43.06
11971;BME280;6045;42.682;23.294;2023-03-15T04:40:17;93405.22;;;11.73;43.64
11971;BME280;6045;42.682;23.294;2023-03-15T04:42:45;93406.19;;;11.27;44.32
11971;BME280;6045;42.682;23.294;2023-03-15T04:45:12;93402.00;;;10.79;44.84
11971;BME280;6045;42.682;23.294;2023-03-15T04:47:39;93408.28;;;10.48;46.52
11971;BME280;6045;42.682;23.294;2023-03-15T04:50:07;93402.75;;;10.22;47.23
11971;BME280;6045;42.682;23.294;2023-03-15T04:52:34;93413.78;;;9.99;47.64
11971;BME280;6045;42.682;23.294;2023-03-15T04:55:01;93406.88;;;9.72;48.44
11971;BME280;6045;42.682;23.294;2023-03-15T04:57:28;93405.31;;;9.44;49.51
11971;BME280;6045;42.682;23.294;2023-03-15T04:59:56;93405.66;;;9.26;50.11
11971;BME280;6045;42.682;23.294;2023-03-15T05:02:23;93404.63;;;9.05;50.85
11971;BME280;6045;42.682;23.294;2023-03-15T05:04:50;93401.91;;;9.00;51.04
11971;BME280;6045;42.682;23.294;2023-03-15T05:07:16;93407.31;;;8.83;51.73
11971;BME280;6045;42.682;23.294;2023-03-15T05:09:43;93410.09;;;8.72;52.56
11971;BME280;6045;42.682;23.294;2023-03-15T05:12:12;93415.94;;;8.69;53.26
11971;BME280;6045;42.682;23.294;2023-03-15T05:14:39;93429.28;;;8.69;52.12
11971;BME280;6045;42.682;23.294;2023-03-15T05:17:07;93410.97;;;8.77;51.75
11971;BME280;6045;42.682;23.294;2023-03-15T05:19:34;93419.88;;;8.88;50.30
11971;BME280;6045;42.682;23.294;2023-03-15T05:22:02;93407.63;;;8.87;51.33
11971;BME280;6045;42.682;23.294;2023-03-15T05:24:29;93406.28;;;8.84;51.05
11971;BME280;6045;42.682;23.294;2023-03-15T05:26:56;93411.78;;;8.78;49.93
11971;BME280;6045;42.682;23.294;2023-03-15T05:29:23;93410.38;;;8.70;50.98
11971;BME280;6045;42.682;23.294;2023-03-15T05:31:49;93402.50;;;8.59;52.59
11971;BME280;6045;42.682;23.294;2023-03-15T05:34:18;93402.31;;;8.65;51.96
11971;BME280;6045;42.682;23.294;2023-03-15T05:36:48;93401.06;;;8.73;49.83
11971;BME280;6045;42.682;23.294;2023-03-15T05:39:15;93397.97;;;8.81;47.88
11971;BME280;6045;42.682;23.294;2023-03-15T05:41:42;93401.50;;;8.86;46.67
11971;BME280;6045;42.682;23.294;2023-03-15T05:44:09;93410.66;;;8.95;46.27
11971;BME280;6045;42.682;23.294;2023-03-15T05:46:36;93397.72;;;9.04;44.88
11971;BME280;6045;42.682;23.294;2023-03-15T05:49:02;93394.53;;;9.07;44.70
11971;BME280;6045;42.682;23.294;2023-03-15T05:51:31;93387.59;;;9.06;44.54
11971;BME280;6045;42.682;23.294;2023-03-15T05:53:57;93390.88;;;9.13;44.69
11971;BME280;6045;42.682;23.294;2023-03-15T05:56:24;93388.00;;;9.20;44.71
11971;BME280;6045;42.682;23.294;2023-03-15T05:58:51;93392.19;;;9.11;44.80
11971;BME280;6045;42.682;23.294;2023-03-15T06:01:18;93382.94;;;9.18;44.88
11971;BME280;6045;42.682;23.294;2023-03-15T06:03:45;93388.66;;;9.32;45.58
11971;BME280;6045;42.682;23.294;2023-03-15T06:06:11;93399.31;;;9.58;44.39
11971;BME280;6045;42.682;23.294;2023-03-15T06:08:39;93386.03;;;9.69;44.59
11971;BME280;6045;42.682;23.294;2023-03-15T06:11:06;93393.97;;;9.90;44.45
11971;BME280;6045;42.682;23.294;2023-03-15T06:13:33;93392.25;;;10.48;44.97
11971;BME280;6045;42.682;23.294;2023-03-15T06:16:00;93386.66;;;11.26;42.64
11971;BME280;6045;42.682;23.294;2023-03-15T06:18:27;93392.78;;;11.22;40.57
11971;BME280;6045;42.682;23.294;2023-03-15T06:20:53;93398.28;;;11.82;39.48
11971;BME280;6045;42.682;23.294;2023-03-15T06:23:20;93401.22;;;12.31;37.99
11971;BME280;6045;42.682;23.294;2023-03-15T06:25:48;93414.59;;;11.81;38.33
11971;BME280;6045;42.682;23.294;2023-03-15T06:28:15;93410.50;;;11.33;39.31
11971;BME280;6045;42.682;23.294;2023-03-15T06:30:42;93401.28;;;10.98;40.46
11971;BME280;6045;42.682;23.294;2023-03-15T06:33:08;93387.31;;;10.81;41.13
11971;BME280;6045;42.682;23.294;2023-03-15T06:35:36;93385.16;;;10.83;41.13
11971;BME280;6045;42.682;23.294;2023-03-15T06:38:03;93376.81;;;11.47;40.93
11971;BME280;6045;42.682;23.294;2023-03-15T06:40:30;93375.91;;;12.72;38.81
11971;BME280;6045;42.682;23.294;2023-03-15T06:42:58;93389.06;;;13.82;35.61
11971;BME280;6045;42.682;23.294;2023-03-15T06:45:30;93385.63;;;13.71;35.33
11971;BME280;6045;42.682;23.294;2023-03-15T06:47:56;93373.81;;;13.72;35.85
11971;BME280;6045;42.682;23.294;2023-03-15T06:50:24;93363.75;;;13.88;35.94
11971;BME280;6045;42.682;23.294;2023-03-15T06:52:51;93371.31;;;13.86;35.99
11971;BME280;6045;42.682;23.294;2023-03-15T06:55:17;93384.63;;;14.34;34.81
11971;BME280;6045;42.682;23.294;2023-03-15T06:57:44;93379.09;;;14.78;33.79
11971;BME280;6045;42.682;23.294;2023-03-15T07:00:14;93383.25;;;14.89;33.42
11971;BME280;6045;42.682;23.294;2023-03-15T07:02:41;93370.25;;;14.73;34.12
11971;BME280;6045;42.682;23.294;2023-03-15T07:05:09;93366.16;;;15.23;33.77
11971;BME280;6045;42.682;23.294;2023-03-15T07:07:35;93376.03;;;15.88;31.94
11971;BME280;6045;42.682;23.294;2023-03-15T07:10:02;93375.00;;;16.54;31.18
11971;BME280;6045;42.682;23.294;2023-03-15T07:12:29;93365.28;;;17.12;29.71
11971;BME280;6045;42.682;23.294;2023-03-15T07:14:56;93361.63;;;17.57;28.13
11971;BME280;6045;42.682;23.294;2023-03-15T07:17:24;93353.09;;;17.77;28.02
11971;BME280;6045;42.682;23.294;2023-03-15T07:19:51;93362.25;;;17.27;29.44
11971;BME280;6045;42.682;23.294;2023-03-15T07:22:18;93363.25;;;17.58;29.97
11971;BME280;6045;42.682;23.294;2023-03-15T07:24:46;93360.66;;;18.11;29.02
11971;BME280;6045;42.682;23.294;2023-03-15T07:27:13;93373.41;;;18.11;28.17
11971;BME280;6045;42.682;23.294;2023-03-15T07:29:40;93369.47;;;18.17;27.40
11971;BME280;6045;42.682;23.294;2023-03-15T07:32:07;93371.31;;;17.72;27.45
11971;BME280;6045;42.682;23.294;2023-03-15T07:34:35;93362.84;;;17.51;28.39
11971;BME280;6045;42.682;23.294;2023-03-15T07:37:02;93359.44;;;17.32;29.31
11971;BME280;6045;42.682;23.294;2023-03-15T07:39:29;93361.25;;;17.23;29.16
11971;BME280;6045;42.682;23.294;2023-03-15T07:41:57;93348.59;;;17.59;28.28
11971;BME280;6045;42.682;23.294;2023-03-15T07:44:24;93355.63;;;18.18;27.60
11971;BME280;6045;42.682;23.294;2023-03-15T07:46:50;93369.19;;;17.83;43.71
11971;BME280;6045;42.682;23.294;2023-03-15T07:49:19;93361.94;;;18.80;44.94
11971;BME280;6045;42.682;23.294;2023-03-15T07:51:47;93357.50;;;19.89;41.64
11971;BME280;6045;42.682;23.294;2023-03-15T07:54:14;93358.75;;;20.60;38.27
11971;BME280;6045;42.682;23.294;2023-03-15T07:56:40;93351.25;;;21.20;37.03
11971;BME280;6045;42.682;23.294;2023-03-15T07:59:07;93340.34;;;21.58;35.45
11971;BME280;6045;42.682;23.294;2023-03-15T08:01:34;93355.09;;;21.57;34.23
11971;BME280;6045;42.682;23.294;2023-03-15T08:04:01;93349.56;;;21.36;36.49
11971;BME280;6045;42.682;23.294;2023-03-15T08:06:27;93347.38;;;21.30;33.94
11971;BME280;6045;42.682;23.294;2023-03-15T08:08:56;93353.25;;;21.40;33.62
11971;BME280;6045;42.682;23.294;2023-03-15T08:11:22;93361.13;;;21.25;33.93
11971;BME280;6045;42.682;23.294;2023-03-15T08:13:49;93352.84;;;21.21;35.07
11971;BME280;6045;42.682;23.294;2023-03-15T08:16:16;93341.81;;;21.18;34.40
11971;BME280;6045;42.682;23.294;2023-03-15T08:18:43;93330.31;;;20.66;36.53
11971;BME280;6045;42.682;23.294;2023-03-15T08:21:09;93325.88;;;20.53;36.05
11971;BME280;6045;42.682;23.294;2023-03-15T08:23:36;93333.25;;;21.07;36.71
11971;BME280;6045;42.682;23.294;2023-03-15T08:26:04;93339.16;;;21.67;33.36
11971;BME280;6045;42.682;23.294;2023-03-15T08:28:31;93339.16;;;20.03;26.29
11971;BME280;6045;42.682;23.294;2023-03-15T08:30:58;93341.09;;;19.29;30.24
11971;BME280;6045;42.682;23.294;2023-03-15T08:33:25;93332.09;;;19.11;30.45
11971;BME280;6045;42.682;23.294;2023-03-15T08:35:54;93319.06;;;18.74;30.96
11971;BME280;6045;42.682;23.294;2023-03-15T08:38:42;93323.16;;;18.40;33.93
11971;BME280;6045;42.682;23.294;2023-03-15T08:41:14;93322.63;;;18.08;30.60
11971;BME280;6045;42.682;23.294;2023-03-15T08:43:41;93327.00;;;18.17;35.41
11971;BME280;6045;42.682;23.294;2023-03-15T08:46:08;93309.88;;;18.53;31.57
11971;BME280;6045;42.682;23.294;2023-03-15T08:48:34;93303.28;;;18.67;30.95
11971;BME280;6045;42.682;23.294;2023-03-15T08:51:02;93309.34;;;19.21;31.06
11971;BME280;6045;42.682;23.294;2023-03-15T08:53:29;93313.50;;;19.27;30.68
11971;BME280;6045;42.682;23.294;2023-03-15T08:55:56;93324.78;;;19.11;30.34
11971;BME280;6045;42.682;23.294;2023-03-15T08:58:24;93323.53;;;18.48;31.80
11971;BME280;6045;42.682;23.294;2023-03-15T09:00:51;93331.72;;;17.90;32.51
11971;BME280;6045;42.682;23.294;2023-03-15T09:03:18;93335.22;;;17.54;31.81
11971;BME280;6045;42.682;23.294;2023-03-15T09:05:47;93330.47;;;16.83;33.24
11971;BME280;6045;42.682;23.294;2023-03-15T09:08:14;93325.47;;;16.77;36.28
11971;BME280;6045;42.682;23.294;2023-03-15T09:10:45;93322.22;;;17.29;33.46
11971;BME280;6045;42.682;23.294;2023-03-15T09:13:12;93330.88;;;17.67;31.79
11971;BME280;6045;42.682;23.294;2023-03-15T09:15:40;93327.06;;;17.05;31.96
11971;BME280;6045;42.682;23.294;2023-03-15T09:18:06;93325.16;;;16.32;34.29
11971;BME280;6045;42.682;23.294;2023-03-15T09:20:33;93325.78;;;16.29;37.19
11971;BME280;6045;42.682;23.294;2023-03-15T09:23:00;93333.63;;;15.80;38.60
11971;BME280;6045;42.682;23.294;2023-03-15T09:25:27;93332.38;;;15.54;34.41
11971;BME280;6045;42.682;23.294;2023-03-15T09:27:54;93332.97;;;15.08;35.28
11971;BME280;6045;42.682;23.294;2023-03-15T09:30:21;93328.41;;;15.09;37.63
11971;BME280;6045;42.682;23.294;2023-03-15T09:32:50;93324.28;;;15.17;37.62
11971;BME280;6045;42.682;23.294;2023-03-15T09:35:18;93326.41;;;15.15;37.59
11971;BME280;6045;42.682;23.294;2023-03-15T09:37:46;93314.00;;;15.37;35.81
11971;BME280;6045;42.682;23.294;2023-03-15T09:40:17;93309.81;;;15.50;35.48
11971;BME280;6045;42.682;23.294;2023-03-15T09:42:57;93305.91;;;15.93;37.28
11971;BME280;6045;42.682;23.294;2023-03-15T09:45:41;93312.09;;;16.39;34.86
11971;BME280;6045;42.682;23.294;2023-03-15T09:48:19;93301.56;;;15.79;34.64
11971;BME280;6045;42.682;23.294;2023-03-15T09:50:50;93299.50;;;15.15;35.87
11971;BME280;6045;42.682;23.294;2023-03-15T09:53:22;93303.56;;;14.93;36.49
11971;BME280;6045;42.682;23.294;2023-03-15T09:55:50;93293.88;;;14.74;36.11
11971;BME280;6045;42.682;23.294;2023-03-15T09:58:20;93292.91;;;14.65;36.72
11971;BME280;6045;42.682;23.294;2023-03-15T10:00:52;93299.34;;;14.64;37.12
11971;BME280;6045;42.682;23.294;2023-03-15T10:03:28;93298.28;;;14.65;37.32
11971;BME280;6045;42.682;23.294;2023-03-15T10:06:00;93307.31;;;14.50;38.28
11971;BME280;6045;42.682;23.294;2023-03-15T10:08:28;93302.16;;;14.54;37.50
11971;BME280;6045;42.682;23.294;2023-03-15T10:11:07;93306.06;;;14.43;37.77
11971;BME280;6045;42.682;23.294;2023-03-15T10:13:56;93305.19;;;14.47;36.34
11971;BME280;6045;42.682;23.294;2023-03-15T10:16:38;93298.19;;;14.46;37.06
11971;BME280;6045;42.682;23.294;2023-03-15T10:19:14;93303.00;;;14.73;36.80
11971;BME280;6045;42.682;23.294;2023-03-15T10:21:51;93304.09;;;14.95;35.66
11971;BME280;6045;42.682;23.294;2023-03-15T10:24:24;93308.94;;;14.93;34.89
11971;BME280;6045;42.682;23.294;2023-03-15T10:26:55;93306.81;;;14.72;35.89
11971;BME280;6045;42.682;23.294;2023-03-15T10:29:24;93296.25;;;14.75;36.79
11971;BME280;6045;42.682;23.294;2023-03-15T10:31:53;93300.28;;;14.54;35.85
11971;BME280;6045;42.682;23.294;2023-03-15T10:34:22;93287.28;;;14.37;36.01
11971;BME280;6045;42.682;23.294;2023-03-15T10:36:51;93283.06;;;14.31;36.44
11971;BME280;6045;42.682;23.294;2023-03-15T10:39:20;93286.16;;;14.15;38.05
11971;BME280;6045;42.682;23.294;2023-03-15T10:41:49;93303.81;;;13.92;38.02
11971;BME280;6045;42.682;23.294;2023-03-15T10:44:18;93296.88;;;13.91;38.71
11971;BME280;6045;42.682;23.294;2023-03-15T10:47:00;93301.91;;;13.98;38.55
11971;BME280;6045;42.682;23.294;2023-03-15T10:49:36;93298.69;;;13.96;37.41
11971;BME280;6045;42.682;23.294;2023-03-15T10:52:04;93295.53;;;13.89;37.28
11971;BME280;6045;42.682;23.294;2023-03-15T10:54:34;93291.72;;;13.95;37.64
11971;BME280;6045;42.682;23.294;2023-03-15T10:57:03;93293.66;;;13.89;38.45
11971;BME280;6045;42.682;23.294;2023-03-15T10:59:33;93295.09;;;13.77;37.46
11971;BME280;6045;42.682;23.294;2023-03-15T11:02:19;93302.78;;;13.54;38.29
11971;BME280;6045;42.682;23.294;2023-03-15T11:04:49;93285.13;;;13.48;38.34
11971;BME280;6045;42.682;23.294;2023-03-15T11:07:24;93290.53;;;13.43;38.14
11971;BME280;6045;42.682;23.294;2023-03-15T11:09:53;93283.50;;;13.47;38.37
11971;BME280;6045;42.682;23.294;2023-03-15T11:12:24;93278.28;;;13.32;38.89
11971;BME280;6045;42.682;23.294;2023-03-15T11:14:56;93283.72;;;13.17;39.80
11971;BME280;6045;42.682;23.294;2023-03-15T11:17:26;93276.75;;;13.21;39.67
11971;BME280;6045;42.682;23.294;2023-03-15T11:19:56;93278.78;;;13.34;38.84
11971;BME280;6045;42.682;23.294;2023-03-15T11:22:24;93278.72;;;13.44;39.13
11971;BME280;6045;42.682;23.294;2023-03-15T11:24:51;93280.66;;;13.34;38.95
11971;BME280;6045;42.682;23.294;2023-03-15T11:27:21;93282.50;;;13.38;38.37
11971;BME280;6045;42.682;23.294;2023-03-15T11:29:50;93283.00;;;13.45;38.27
11971;BME280;6045;42.682;23.294;2023-03-15T11:32:20;93285.97;;;13.44;38.56
11971;BME280;6045;42.682;23.294;2023-03-15T11:34:53;93285.31;;;13.23;39.63
11971;BME280;6045;42.682;23.294;2023-03-15T11:37:26;93283.53;;;13.09;40.78
11971;BME280;6045;42.682;23.294;2023-03-15T11:39:57;93276.19;;;12.70;42.79
11971;BME280;6045;42.682;23.294;2023-03-15T11:42:29;93272.81;;;12.50;43.80
11971;BME280;6045;42.682;23.294;2023-03-15T11:45:00;93277.16;;;12.30;44.64
11971;BME280;6045;42.682;23.294;2023-03-15T11:47:36;93271.88;;;12.10;46.29
11971;BME280;6045;42.682;23.294;2023-03-15T11:50:06;93284.22;;;11.96;47.54
11971;BME280;6045;42.682;23.294;2023-03-15T11:52:34;93273.53;;;11.91;48.46
11971;BME280;6045;42.682;23.294;2023-03-15T11:55:02;93275.09;;;11.92;49.34
11971;BME280;6045;42.682;23.294;2023-03-15T11:57:38;93267.66;;;11.74;49.50
11971;BME280;6045;42.682;23.294;2023-03-15T12:00:48;93269.25;;;11.65;49.42
11971;BME280;6045;42.682;23.294;2023-03-15T12:03:34;93271.09;;;11.54;49.97
11971;BME280;6045;42.682;23.294;2023-03-15T12:06:10;93273.53;;;11.61;50.80
11971;BME280;6045;42.682;23.294;2023-03-15T12:08:44;93261.75;;;11.82;50.52
11971;BME280;6045;42.682;23.294;2023-03-15T12:11:37;93263.34;;;11.88;49.51
11971;BME280;6045;42.682;23.294;2023-03-15T12:14:26;93259.03;;;11.97;50.40
11971;BME280;6045;42.682;23.294;2023-03-15T12:20:20;93249.44;;;11.91;51.77
11971;BME280;6045;42.682;23.294;2023-03-15T12:22:50;93239.75;;;12.05;51.26
11971;BME280;6045;42.682;23.294;2023-03-15T12:25:29;93240.50;;;12.16;50.45
11971;BME280;6045;42.682;23.294;2023-03-15T12:27:57;93241.59;;;12.15;50.45
11971;BME280;6045;42.682;23.294;2023-03-15T12:30:32;93253.34;;;12.19;50.46
11971;BME280;6045;42.682;23.294;2023-03-15T12:33:01;93239.16;;;12.13;50.87
11971;BME280;6045;42.682;23.294;2023-03-15T12:35:32;93240.78;;;12.14;50.90
11971;BME280;6045;42.682;23.294;2023-03-15T12:38:10;93234.06;;;12.22;50.47
11971;BME280;6045;42.682;23.294;2023-03-15T12:40:47;93227.91;;;12.16;50.64
11971;BME280;6045;42.682;23.294;2023-03-15T12:43:34;93238.09;;;12.19;49.79
11971;BME280;6045;42.682;23.294;2023-03-15T12:46:01;93237.00;;;12.15;49.52
11971;BME280;6045;42.682;23.294;2023-03-15T12:48:30;93238.94;;;12.10;49.59
11971;BME280;6045;42.682;23.294;2023-03-15T12:51:03;93238.66;;;12.06;50.00
11971;BME280;6045;42.682;23.294;2023-03-15T12:53:39;93233.31;;;12.01;48.35
11971;BME280;6045;42.682;23.294;2023-03-15T12:56:39;93237.91;;;11.96;48.06
11971;BME280;6045;42.682;23.294;2023-03-15T12:59:14;93226.91;;;11.92;48.40
11971;BME280;6045;42.682;23.294;2023-03-15T13:01:43;93231.22;;;11.83;47.80
11971;BME280;6045;42.682;23.294;2023-03-15T13:04:12;93238.19;;;11.59;48.15
11971;BME280;6045;42.682;23.294;2023-03-15T13:07:01;93237.13;;;11.45;48.37
11971;BME280;6045;42.682;23.294;2023-03-15T13:09:55;93231.25;;;11.38;49.02
11971;BME280;6045;42.682;23.294;2023-03-15T13:12:28;93227.00;;;11.47;48.86
11971;BME280;6045;42.682;23.294;2023-03-15T13:15:02;93221.88;;;11.55;48.00
11971;BME280;6045;42.682;23.294;2023-03-15T13:17:35;93211.97;;;11.71;47.59
11971;BME280;6045;42.682;23.294;2023-03-15T13:20:24;93214.91;;;11.80;47.38